Time;durP1;ratioP1;P1;durP2;ratioP2;P2;SDS_P1;SDS_P2;PMS_P1;PMS_P2;Temp;Humidity;BMP_temperature;BMP_pressure;BME280_temperature;BME280_humidity;BME280_pressure;Samples;Min_cycle;Max_cycle;Signal;HPM_P1;HPM_P2
2023/07/28 00:00:59;;;;;;;7.37;6.80;;;15.90;99.90;;;;;;5035531;28;20622;-76
2023/07/28 00:03:25;;;;;;;7.47;6.87;;;15.80;99.90;;;;;;5033927;28;20266;-76
2023/07/28 00:05:52;;;;;;;7.63;6.93;;;15.70;99.90;;;;;;5033898;28;20200;-75
2023/07/28 00:08:19;;;;;;;6.67;6.17;;;15.70;99.90;;;;;;5035135;28;20195;-76
2023/07/28 00:10:46;;;;;;;7.10;6.50;;;15.70;99.90;;;;;;5034532;28;20692;-76
2023/07/28 00:13:14;;;;;;;7.20;6.60;;;15.60;99.90;;;;;;5035000;28;20446;-75
2023/07/28 00:15:41;;;;;;;6.37;5.87;;;15.60;99.90;;;;;;5037429;28;20253;-76
2023/07/28 00:18:07;;;;;;;7.87;6.37;;;15.60;99.90;;;;;;5034808;28;20227;-76
2023/07/28 00:20:34;;;;;;;7.60;7.00;;;15.60;99.90;;;;;;5034681;28;20617;-76
2023/07/28 00:23:01;;;;;;;8.83;7.13;;;15.60;99.90;;;;;;5034770;28;20711;-76
2023/07/28 00:25:28;;;;;;;7.67;7.00;;;15.50;99.90;;;;;;5034792;28;20267;-75
2023/07/28 00:27:54;;;;;;;6.70;6.20;;;15.50;99.90;;;;;;5047735;28;20260;-76
2023/07/28 00:30:23;;;;;;;8.57;6.40;;;15.40;99.90;;;;;;5033380;28;20214;-76
2023/07/28 00:32:50;;;;;;;7.47;6.80;;;15.40;99.90;;;;;;5033320;28;20196;-76
2023/07/28 00:35:17;;;;;;;6.90;6.40;;;15.30;99.90;;;;;;5033255;28;20227;-76
2023/07/28 00:37:44;;;;;;;6.87;6.27;;;15.30;99.90;;;;;;5034348;28;20194;-76
2023/07/28 00:40:12;;;;;;;7.00;6.50;;;15.20;99.90;;;;;;5032817;28;20260;-76
2023/07/28 00:42:39;;;;;;;8.00;7.20;;;15.20;99.90;;;;;;5033289;28;20287;-76
2023/07/28 00:45:07;;;;;;;6.90;6.40;;;15.20;99.90;;;;;;5041225;28;20210;-76
2023/07/28 00:47:35;;;;;;;7.70;7.10;;;15.20;99.90;;;;;;5043439;28;20555;-76
2023/07/28 00:50:03;;;;;;;7.50;6.83;;;15.10;99.90;;;;;;5033193;28;20200;-76
2023/07/28 00:52:30;;;;;;;7.33;6.80;;;15.10;99.90;;;;;;5034444;28;20540;-76
2023/07/28 00:54:57;;;;;;;7.30;6.70;;;15.10;99.90;;;;;;5035416;28;20291;-76
2023/07/28 00:57:24;;;;;;;7.60;7.00;;;15.20;99.90;;;;;;5033342;28;20207;-76
2023/07/28 00:59:51;;;;;;;7.70;7.00;;;15.20;99.90;;;;;;5036666;28;20204;-76
2023/07/28 01:02:18;;;;;;;7.10;6.50;;;15.10;99.90;;;;;;5033932;28;20193;-76
2023/07/28 01:04:46;;;;;;;7.33;6.80;;;15.10;99.90;;;;;;5033707;28;20218;-76
2023/07/28 01:07:18;;;;;;;7.67;7.07;;;15.10;99.90;;;;;;5036094;28;20225;-76
2023/07/28 01:09:51;;;;;;;7.70;7.03;;;15.10;99.90;;;;;;5035878;28;20795;-76
2023/07/28 01:12:19;;;;;;;7.60;7.00;;;15.00;99.90;;;;;;5032969;28;20197;-76
2023/07/28 01:14:46;;;;;;;8.23;7.50;;;15.00;99.90;;;;;;5032327;28;20572;-75
2023/07/28 01:17:13;;;;;;;7.50;6.90;;;15.00;99.90;;;;;;5032484;28;20206;-76
2023/07/28 01:19:40;;;;;;;8.40;7.70;;;15.00;99.90;;;;;;5032481;28;20202;-76
2023/07/28 01:22:25;;;;;;;9.37;8.67;;;14.90;99.90;;;;;;5032974;28;20197;-76
2023/07/28 01:24:58;;;;;;;8.87;8.27;;;14.90;99.90;;;;;;5035904;28;20239;-76
2023/07/28 01:27:27;;;;;;;9.07;8.43;;;15.00;99.90;;;;;;5033861;28;20204;-76
2023/07/28 01:29:54;;;;;;;9.30;8.60;;;15.00;99.90;;;;;;5048272;28;20207;-76
2023/07/28 01:32:21;;;;;;;9.27;8.67;;;15.10;99.90;;;;;;5038071;28;20204;-76
2023/07/28 01:34:48;;;;;;;9.27;8.57;;;15.10;99.90;;;;;;5039134;28;20259;-76
2023/07/28 01:37:15;;;;;;;9.73;9.00;;;15.20;99.90;;;;;;5045293;28;20190;-76
2023/07/28 01:39:41;;;;;;;9.43;8.80;;;15.20;99.90;;;;;;5039511;28;20495;-75
2023/07/28 01:42:08;;;;;;;9.90;9.20;;;15.30;99.90;;;;;;5037752;28;20205;-76
2023/07/28 01:44:36;;;;;;;9.50;8.80;;;15.30;99.90;;;;;;5032074;28;20226;-76
2023/07/28 01:47:03;;;;;;;9.30;8.60;;;15.30;99.90;;;;;;5041354;28;20248;-76
2023/07/28 01:49:30;;;;;;;9.70;8.73;;;15.30;99.90;;;;;;5032997;28;20256;-75
2023/07/28 01:51:57;;;;;;;8.40;7.70;;;15.30;99.90;;;;;;5046175;28;20208;-75
2023/07/28 01:54:24;;;;;;;8.70;8.10;;;15.40;99.90;;;;;;5041405;28;20220;-76
2023/07/28 01:56:51;;;;;;;9.13;8.47;;;15.40;99.90;;;;;;5034552;28;20703;-75
2023/07/28 01:59:18;;;;;;;8.93;8.27;;;15.30;99.90;;;;;;5031520;28;20200;-76
2023/07/28 02:01:47;;;;;;;9.10;8.50;;;15.30;99.90;;;;;;5032002;28;20223;-76
2023/07/28 02:04:15;;;;;;;8.43;7.83;;;15.30;99.90;;;;;;5034685;28;20261;-76
2023/07/28 02:06:42;;;;;;;8.87;8.27;;;15.20;99.90;;;;;;5031556;28;20290;-76
2023/07/28 02:09:09;;;;;;;9.53;8.83;;;15.20;99.90;;;;;;5032521;28;20646;-76
2023/07/28 02:11:36;;;;;;;9.00;8.40;;;15.20;99.90;;;;;;5042628;28;20583;-76
2023/07/28 02:14:03;;;;;;;9.43;8.63;;;15.20;99.90;;;;;;5030381;28;20238;-76
2023/07/28 02:16:32;;;;;;;9.23;8.63;;;15.20;99.90;;;;;;5039484;28;20202;-76
2023/07/28 02:19:00;;;;;;;9.83;8.93;;;15.20;99.90;;;;;;5033114;28;20198;-76
2023/07/28 02:21:27;;;;;;;9.10;8.40;;;15.30;99.90;;;;;;5031326;28;20246;-75
2023/07/28 02:23:54;;;;;;;9.03;8.40;;;15.30;99.90;;;;;;5031163;28;20320;-75
2023/07/28 02:26:21;;;;;;;9.17;8.57;;;15.30;99.90;;;;;;5035299;28;20666;-76
2023/07/28 02:28:48;;;;;;;9.37;8.77;;;15.40;99.90;;;;;;5039443;28;20202;-76
2023/07/28 02:31:15;;;;;;;8.83;8.23;;;15.40;99.90;;;;;;5047542;28;20196;-76
2023/07/28 02:33:42;;;;;;;9.10;8.50;;;15.40;99.90;;;;;;5038864;28;20230;-75
2023/07/28 02:36:10;;;;;;;8.27;7.77;;;15.40;99.90;;;;;;5031323;28;20247;-75
2023/07/28 02:38:37;;;;;;;8.97;8.37;;;15.40;99.90;;;;;;5032204;28;20200;-76
2023/07/28 02:41:04;;;;;;;9.27;8.67;;;15.40;99.90;;;;;;5030514;28;20208;-76
2023/07/28 02:43:31;;;;;;;9.30;8.70;;;15.50;99.90;;;;;;5031738;28;20242;-76
2023/07/28 02:45:58;;;;;;;9.00;8.40;;;15.50;99.90;;;;;;5032175;28;20187;-75
2023/07/28 02:48:25;;;;;;;9.13;8.53;;;15.50;99.90;;;;;;5030875;28;20264;-76
2023/07/28 02:50:52;;;;;;;9.37;8.67;;;15.50;99.90;;;;;;5030626;28;20204;-76
2023/07/28 02:53:21;;;;;;;8.77;8.17;;;15.50;99.90;;;;;;5040729;28;20227;-80
2023/07/28 02:55:49;;;;;;;9.60;8.97;;;15.50;99.90;;;;;;5057803;28;20218;-79
2023/07/28 02:58:16;;;;;;;7.97;7.47;;;15.50;99.90;;;;;;5046736;28;20206;-79
2023/07/28 03:00:46;;;;;;;9.17;8.57;;;15.40;99.90;;;;;;5044367;28;20272;-79
2023/07/28 03:03:15;;;;;;;8.33;7.73;;;15.40;99.90;;;;;;5044990;28;20199;-78
2023/07/28 03:05:42;;;;;;;8.67;8.07;;;15.50;99.90;;;;;;5048295;28;20201;-78
2023/07/28 03:08:24;;;;;;;8.67;8.07;;;15.40;99.90;;;;;;5043012;28;20255;-79
2023/07/28 03:10:57;;;;;;;9.17;8.57;;;15.40;99.90;;;;;;5051144;28;20203;-80
2023/07/28 03:13:24;;;;;;;9.00;8.40;;;15.40;99.90;;;;;;5047924;28;20202;-80
2023/07/28 03:15:51;;;;;;;8.80;8.20;;;15.40;99.90;;;;;;5053582;28;20700;-79
2023/07/28 03:18:30;;;;;;;8.80;8.20;;;15.40;99.90;;;;;;5034899;28;20203;-81
2023/07/28 03:20:57;;;;;;;9.30;8.60;;;15.50;99.90;;;;;;5036202;28;20199;-77
2023/07/28 03:23:26;;;;;;;8.93;8.23;;;15.40;99.90;;;;;;5027957;28;20819;-76
2023/07/28 03:25:53;;;;;;;8.70;8.00;;;15.50;99.90;;;;;;5042463;28;20736;-76
2023/07/28 03:28:20;;;;;;;9.47;8.77;;;15.50;99.90;;;;;;5040679;28;20298;-75
2023/07/28 03:30:47;;;;;;;9.53;8.83;;;15.50;99.90;;;;;;5035778;28;20203;-76
2023/07/28 03:33:14;;;;;;;9.53;8.83;;;15.40;99.90;;;;;;5030950;28;20666;-76
2023/07/28 03:35:41;;;;;;;9.67;8.97;;;15.40;99.90;;;;;;5033264;28;20764;-76
2023/07/28 03:38:10;;;;;;;9.53;8.83;;;15.40;99.90;;;;;;5037920;28;20562;-76
2023/07/28 03:40:40;;;;;;;8.83;8.23;;;15.40;99.90;;;;;;5029984;28;20199;-75
2023/07/28 03:43:07;;;;;;;8.77;8.17;;;15.40;99.90;;;;;;5043977;28;20210;-75
2023/07/28 03:45:34;;;;;;;8.20;7.60;;;15.40;99.90;;;;;;5039578;28;20235;-76
2023/07/28 03:48:00;;;;;;;8.40;7.80;;;15.40;99.90;;;;;;5037568;28;20199;-76
2023/07/28 03:50:27;;;;;;;9.00;8.40;;;15.50;99.90;;;;;;5029692;28;20199;-76
2023/07/28 03:52:54;;;;;;;8.20;7.70;;;15.40;99.90;;;;;;5036438;28;20203;-76
2023/07/28 03:55:21;;;;;;;7.70;7.20;;;15.50;99.90;;;;;;5035364;28;20669;-76
2023/07/28 03:57:49;;;;;;;8.80;8.20;;;15.50;99.90;;;;;;5034786;28;20211;-76
2023/07/28 04:00:17;;;;;;;9.13;8.53;;;15.60;99.90;;;;;;5030984;28;20698;-76
2023/07/28 04:02:43;;;;;;;7.50;7.00;;;15.60;99.90;;;;;;5031165;28;20224;-75
2023/07/28 04:05:10;;;;;;;7.70;7.20;;;15.60;99.90;;;;;;5043987;28;20219;-76
2023/07/28 04:07:37;;;;;;;7.80;7.30;;;15.60;99.90;;;;;;5035081;28;20228;-76
2023/07/28 04:10:26;;;;;;;7.40;6.90;;;15.70;99.90;;;;;;5040218;28;20206;-81
2023/07/28 04:12:54;;;;;;;8.30;7.80;;;15.70;99.90;;;;;;5043696;28;20189;-79
2023/07/28 04:15:21;;;;;;;8.10;7.60;;;15.70;99.90;;;;;;5057142;28;20238;-78
2023/07/28 04:17:56;;;;;;;8.20;7.70;;;15.80;99.90;;;;;;5049868;28;20286;-79
2023/07/28 04:20:23;;;;;;;8.83;8.23;;;15.80;99.90;;;;;;5041854;28;20218;-79
2023/07/28 04:22:50;;;;;;;8.80;8.27;;;15.90;99.90;;;;;;5033315;28;20293;-80
2023/07/28 04:25:17;;;;;;;7.90;7.40;;;15.90;99.90;;;;;;5032856;28;20222;-80
2023/07/28 04:27:47;;;;;;;8.07;7.57;;;16.00;99.90;;;;;;5034849;28;20263;-81
2023/07/28 04:30:15;;;;;;;7.73;7.23;;;16.10;99.90;;;;;;5032683;28;20295;-80
2023/07/28 04:32:42;;;;;;;7.67;7.17;;;16.10;99.90;;;;;;5033994;28;20203;-80
2023/07/28 04:35:14;;;;;;;8.03;7.53;;;16.20;99.90;;;;;;5033108;28;20269;-80
2023/07/28 04:37:55;;;;;;;9.50;8.90;;;16.20;99.90;;;;;;5037101;28;20294;-80
2023/07/28 04:40:47;;;;;;;10.10;9.43;;;16.30;99.90;;;;;;5036946;28;20244;-80
2023/07/28 04:43:17;;;;;;;3.83;3.53;;;16.40;99.90;;;;;;5036721;28;20205;-80
2023/07/28 04:45:52;;;;;;;3.97;3.60;;;16.50;99.90;;;;;;5036357;28;20199;-80
2023/07/28 04:48:21;;;;;;;3.73;3.43;;;16.60;99.90;;;;;;5043681;28;20203;-80
2023/07/28 04:50:48;;;;;;;5.00;4.60;;;16.70;99.90;;;;;;5036528;28;20302;-80
2023/07/28 04:53:54;;;;;;;8.77;8.27;;;16.80;99.90;;;;;;5029517;28;20327;-77
2023/07/28 04:56:28;;;;;;;5.43;5.03;;;16.80;99.90;;;;;;5044426;28;20265;-80
2023/07/28 04:58:55;;;;;;;6.70;6.20;;;16.80;99.90;;;;;;5035637;28;20203;-81
2023/07/28 05:01:23;;;;;;;4.90;4.03;;;16.80;99.90;;;;;;5035741;28;20196;-80
2023/07/28 05:03:53;;;;;;;10.70;10.00;;;16.90;99.90;;;;;;5036390;28;20636;-80
2023/07/28 05:06:26;;;;;;;4.70;4.40;;;16.90;99.90;;;;;;5043933;28;20200;-80
2023/07/28 05:08:53;;;;;;;4.33;4.03;;;17.00;99.90;;;;;;5035928;28;20275;-80
2023/07/28 05:11:26;;;;;;;4.73;4.37;;;17.00;99.90;;;;;;5037361;28;20309;-80
2023/07/28 05:13:53;;;;;;;3.70;3.40;;;17.00;99.90;;;;;;5041866;28;20300;-80
2023/07/28 05:16:20;;;;;;;9.40;8.80;;;17.00;99.90;;;;;;5041168;28;20220;-80
2023/07/28 05:19:21;;;;;;;8.80;8.20;;;17.00;99.90;;;;;;5023918;28;20715;-80
2023/07/28 05:22:07;;;;;;;9.90;9.20;;;17.00;99.90;;;;;;5038167;28;20333;-79
2023/07/28 05:24:50;;;;;;;9.60;9.00;;;17.00;99.90;;;;;;5037342;28;20232;-81
2023/07/28 05:27:17;;;;;;;9.83;9.23;;;17.00;99.90;;;;;;5054755;28;20230;-82
2023/07/28 05:29:47;;;;;;;10.53;9.83;;;16.90;99.90;;;;;;5049986;28;20629;-80
2023/07/28 05:32:14;;;;;;;11.07;10.30;;;16.90;99.90;;;;;;5056209;28;20214;-83
2023/07/28 05:35:02;;;;;;;4.40;4.10;;;16.90;99.90;;;;;;5052198;28;20241;-80
2023/07/28 05:37:29;;;;;;;4.90;4.50;;;16.90;99.90;;;;;;5048471;28;20201;-82
2023/07/28 05:39:56;;;;;;;4.83;4.43;;;16.90;99.90;;;;;;5049850;28;20697;-83
2023/07/28 05:42:24;;;;;;;4.80;4.40;;;16.90;99.90;;;;;;5044837;28;20638;-77
2023/07/28 05:44:52;;;;;;;4.97;4.57;;;16.90;99.90;;;;;;5034297;28;20290;-77
2023/07/28 05:47:19;;;;;;;8.37;7.83;;;16.90;99.90;;;;;;5032878;28;20287;-78
2023/07/28 05:49:45;;;;;;;10.47;9.77;;;17.00;99.90;;;;;;5035231;28;20239;-79
2023/07/28 05:52:14;;;;;;;8.47;7.87;;;17.00;99.90;;;;;;5035057;28;20299;-77
2023/07/28 05:54:40;;;;;;;4.80;4.40;;;17.10;99.90;;;;;;5034110;28;20603;-76
2023/07/28 05:57:07;;;;;;;4.17;3.83;;;17.10;99.90;;;;;;5047498;28;20313;-78
2023/07/28 05:59:34;;;;;;;6.80;6.30;;;17.20;99.90;;;;;;5036392;28;20543;-77
2023/07/28 06:02:01;;;;;;;3.60;3.40;;;17.20;99.90;;;;;;5035098;28;20203;-76
2023/07/28 06:04:47;;;;;;;4.53;4.23;;;17.30;99.90;;;;;;5034283;28;20293;-78
2023/07/28 06:07:15;;;;;;;3.93;3.63;;;17.40;99.90;;;;;;5036272;28;20199;-77
2023/07/28 06:09:42;;;;;;;12.00;11.20;;;17.40;99.90;;;;;;5033137;28;20192;-77
2023/07/28 06:12:10;;;;;;;11.50;10.80;;;17.40;99.90;;;;;;5034672;28;20293;-78
2023/07/28 06:14:37;;;;;;;10.57;9.87;;;17.50;99.90;;;;;;5036060;28;20219;-78
2023/07/28 06:17:07;;;;;;;10.77;10.07;;;17.50;99.90;;;;;;5043092;28;20219;-78
2023/07/28 06:19:35;;;;;;;11.00;10.30;;;17.60;99.90;;;;;;5050209;28;20206;-78
2023/07/28 06:22:01;;;;;;;8.47;6.70;;;17.60;99.90;;;;;;5035153;28;20200;-76
2023/07/28 06:24:32;;;;;;;4.27;3.87;;;17.70;99.90;;;;;;5034021;28;20226;-77
2023/07/28 06:27:06;;;;;;;4.53;4.13;;;17.80;99.90;;;;;;5036746;28;20327;-77
2023/07/28 06:29:34;;;;;;;8.83;8.27;;;17.80;99.90;;;;;;5034014;28;20199;-77
2023/07/28 06:32:01;;;;;;;6.87;6.37;;;17.90;99.90;;;;;;5034065;28;20192;-77
2023/07/28 06:34:28;;;;;;;10.60;9.90;;;17.90;99.90;;;;;;5034252;28;20227;-78
2023/07/28 06:36:55;;;;;;;9.50;8.73;;;17.90;99.90;;;;;;5043562;28;20224;-79
2023/07/28 06:39:22;;;;;;;4.10;3.80;;;18.00;99.90;;;;;;5044610;28;20199;-79
2023/07/28 06:41:50;;;;;;;5.60;5.10;;;18.00;99.90;;;;;;5035949;28;20196;-79
2023/07/28 06:44:17;;;;;;;10.40;9.70;;;18.00;99.90;;;;;;5043677;28;20263;-76
2023/07/28 06:46:44;;;;;;;5.00;4.60;;;18.00;99.90;;;;;;5032716;28;20192;-77
2023/07/28 06:49:11;;;;;;;4.90;4.50;;;18.00;99.90;;;;;;5036038;28;20226;-80
2023/07/28 06:51:38;;;;;;;4.10;3.80;;;18.10;99.90;;;;;;5050890;28;20200;-79
2023/07/28 06:54:09;;;;;;;5.00;4.23;;;18.10;99.90;;;;;;5045789;28;20220;-78
2023/07/28 06:56:35;;;;;;;4.20;3.90;;;18.20;99.90;;;;;;5039799;28;20218;-77
2023/07/28 06:59:03;;;;;;;9.80;9.13;;;18.30;99.90;;;;;;5036433;28;20206;-77
2023/07/28 07:01:30;;;;;;;7.67;7.17;;;18.40;99.90;;;;;;5037667;28;20724;-78
2023/07/28 07:03:57;;;;;;;7.43;6.73;;;18.40;99.90;;;;;;5035552;28;20225;-78
2023/07/28 07:06:24;;;;;;;4.57;4.20;;;18.50;99.90;;;;;;5043973;28;20272;-77
2023/07/28 07:08:51;;;;;;;9.50;8.90;;;18.60;99.90;;;;;;5033649;28;20201;-76
2023/07/28 07:11:18;;;;;;;8.23;7.53;;;18.60;99.90;;;;;;5032584;28;20260;-78
2023/07/28 07:13:45;;;;;;;7.60;7.00;;;18.60;99.90;;;;;;5037002;28;20243;-77
2023/07/28 07:16:16;;;;;;;7.27;6.70;;;18.80;99.90;;;;;;5032729;28;20215;-77
2023/07/28 07:18:43;;;;;;;7.70;7.20;;;18.90;99.90;;;;;;5034525;28;20203;-78
2023/07/28 07:21:10;;;;;;;4.53;4.13;;;19.00;99.90;;;;;;5035836;28;20221;-78
2023/07/28 07:23:37;;;;;;;11.80;10.97;;;19.10;99.90;;;;;;5049935;28;20231;-76
2023/07/28 07:26:04;;;;;;;9.93;9.33;;;19.20;99.90;;;;;;5044079;28;20201;-77
2023/07/28 07:28:31;;;;;;;9.83;9.07;;;19.30;99.90;;;;;;5048286;28;20733;-77
2023/07/28 07:30:58;;;;;;;5.83;5.33;;;19.40;99.90;;;;;;5040729;28;20250;-77
2023/07/28 07:33:27;;;;;;;4.90;4.43;;;19.40;99.90;;;;;;5040843;28;20206;-78
2023/07/28 07:35:54;;;;;;;5.40;4.90;;;19.50;99.90;;;;;;5048900;28;20301;-77
2023/07/28 07:38:21;;;;;;;6.27;5.67;;;19.60;99.90;;;;;;5044712;28;20462;-77
2023/07/28 07:40:48;;;;;;;5.27;4.40;;;19.60;99.90;;;;;;5037102;28;20203;-77
2023/07/28 07:43:18;;;;;;;5.07;4.60;;;19.80;99.90;;;;;;5035610;28;20262;-77
2023/07/28 07:45:46;;;;;;;4.40;4.00;;;19.90;99.90;;;;;;5035973;28;20222;-77
2023/07/28 07:48:13;;;;;;;5.37;4.87;;;19.90;99.90;;;;;;5034836;28;20207;-77
2023/07/28 07:50:41;;;;;;;4.50;4.10;;;19.90;99.90;;;;;;5034273;28;20238;-77
2023/07/28 07:53:08;;;;;;;5.47;4.97;;;19.90;99.90;;;;;;5034977;28;20218;-77
2023/07/28 07:55:35;;;;;;;4.23;3.87;;;19.90;99.90;;;;;;5036145;28;20646;-77
2023/07/28 07:58:03;;;;;;;5.53;4.57;;;19.90;99.90;;;;;;5035587;28;20227;-77
2023/07/28 08:00:30;;;;;;;4.60;4.20;;;19.90;99.90;;;;;;5035380;28;20258;-77
2023/07/28 08:02:57;;;;;;;4.33;3.93;;;20.00;99.90;;;;;;5044684;28;20230;-77
2023/07/28 08:05:24;;;;;;;4.83;4.43;;;20.10;99.90;;;;;;5036713;28;20651;-77
2023/07/28 08:07:52;;;;;;;4.47;4.07;;;20.10;99.90;;;;;;5039351;28;20199;-77
2023/07/28 08:10:19;;;;;;;4.30;4.00;;;20.20;99.90;;;;;;5033940;28;20192;-77
2023/07/28 08:12:47;;;;;;;4.50;3.93;;;20.30;99.90;;;;;;5039137;28;20573;-77
2023/07/28 08:15:14;;;;;;;4.90;4.47;;;20.40;99.90;;;;;;5045540;28;20260;-77
2023/07/28 08:17:40;;;;;;;9.23;8.63;;;20.60;99.90;;;;;;5040832;28;20270;-77
2023/07/28 08:20:09;;;;;;;4.73;4.33;;;20.80;99.90;;;;;;5038767;28;20235;-77
2023/07/28 08:22:36;;;;;;;4.80;4.37;;;21.30;99.90;;;;;;5046011;28;20204;-77
2023/07/28 08:25:05;;;;;;;6.03;5.37;;;21.80;99.90;;;;;;5038886;28;20246;-77
2023/07/28 08:27:32;;;;;;;5.67;5.17;;;22.50;99.90;;;;;;5046073;28;20290;-77
2023/07/28 08:29:58;;;;;;;6.87;6.27;;;23.20;99.90;;;;;;5040458;28;20212;-77
2023/07/28 08:32:25;;;;;;;6.07;5.57;;;23.40;99.90;;;;;;5041515;28;20200;-77
2023/07/28 08:34:52;;;;;;;5.17;4.77;;;23.60;99.90;;;;;;5040689;28;20286;-78
2023/07/28 08:37:19;;;;;;;4.50;4.10;;;23.80;99.90;;;;;;5053266;28;20273;-77
2023/07/28 08:39:46;;;;;;;8.20;7.60;;;24.00;99.90;;;;;;5039896;28;20215;-77
2023/07/28 08:42:15;;;;;;;7.73;7.23;;;24.10;99.90;;;;;;5040711;28;20580;-78
2023/07/28 08:44:42;;;;;;;10.10;9.40;;;24.20;99.90;;;;;;5040501;28;20224;-77
2023/07/28 08:47:09;;;;;;;8.93;8.33;;;24.20;99.90;;;;;;5039795;28;20627;-77
2023/07/28 08:49:36;;;;;;;5.83;5.43;;;24.30;99.90;;;;;;5037461;28;20209;-77
2023/07/28 08:52:04;;;;;;;5.07;4.63;;;24.40;99.90;;;;;;5040172;28;20681;-77
2023/07/28 08:54:31;;;;;;;4.47;3.73;;;24.20;99.90;;;;;;5046667;28;20232;-77
2023/07/28 08:56:59;;;;;;;6.13;5.50;;;24.00;99.90;;;;;;5046699;28;20239;-77
2023/07/28 08:59:28;;;;;;;6.07;5.50;;;24.10;99.90;;;;;;5041756;28;20652;-78
2023/07/28 09:01:57;;;;;;;6.47;5.87;;;24.60;99.90;;;;;;5044407;28;20204;-81
2023/07/28 09:04:25;;;;;;;5.87;5.37;;;25.10;99.90;;;;;;5041603;28;20714;-82
2023/07/28 09:06:52;;;;;;;6.53;6.03;;;25.90;99.90;;;;;;5043447;28;20196;-80
2023/07/28 09:09:22;;;;;;;8.20;7.63;;;26.60;99.90;;;;;;5035765;28;20238;-81
2023/07/28 09:11:51;;;;;;;7.93;7.33;;;27.30;99.90;;;;;;5038742;28;20280;-81
2023/07/28 09:14:20;;;;;;;9.10;8.50;;;28.00;99.90;;;;;;5037483;28;20227;-83
2023/07/28 09:16:48;;;;;;;8.60;8.00;;;28.50;99.90;;;;;;5040350;28;20241;-81
2023/07/28 09:19:15;;;;;;;8.20;7.60;;;28.70;99.90;;;;;;5032956;28;20196;-81
2023/07/28 09:21:45;;;;;;;9.60;9.00;;;28.40;99.90;;;;;;5034624;28;20250;-81
2023/07/28 09:24:12;;;;;;;10.63;9.83;;;27.80;99.90;;;;;;5048773;28;20215;-82
2023/07/28 09:26:40;;;;;;;9.57;8.97;;;27.20;99.90;;;;;;5038450;28;20191;-82
2023/07/28 09:29:15;;;;;;;9.00;8.30;;;26.80;99.90;;;;;;5043514;28;20642;-81
2023/07/28 09:31:42;;;;;;;8.50;7.90;;;26.40;99.90;;;;;;5041015;28;20301;-82
2023/07/28 09:34:11;;;;;;;5.20;4.50;;;26.00;99.90;;;;;;5046841;28;20293;-81
2023/07/28 09:36:39;;;;;;;5.83;5.43;;;25.90;99.90;;;;;;5050075;28;20277;-81
2023/07/28 09:39:08;;;;;;;7.33;6.73;;;25.70;99.90;;;;;;5043876;28;20286;-81
2023/07/28 09:41:37;;;;;;;5.23;4.83;;;25.90;99.90;;;;;;5039583;28;20188;-82
2023/07/28 09:44:05;;;;;;;4.67;4.27;;;26.50;99.90;;;;;;5042895;28;20220;-81
2023/07/28 09:46:34;;;;;;;8.60;8.00;;;26.70;99.90;;;;;;5045780;28;20565;-80
2023/07/28 09:49:06;;;;;;;8.20;7.70;;;26.70;99.90;;;;;;5036505;28;20573;-80
2023/07/28 09:51:36;;;;;;;8.40;7.80;;;26.70;99.90;;;;;;5041256;28;20281;-80
2023/07/28 09:54:06;;;;;;;8.80;8.20;;;26.50;99.90;;;;;;5053354;28;20219;-81
2023/07/28 09:56:33;;;;;;;7.77;7.17;;;26.50;99.90;;;;;;5041307;28;20238;-80
2023/07/28 09:59:03;;;;;;;8.63;8.03;;;26.20;99.90;;;;;;5043531;28;20195;-80
2023/07/28 10:01:31;;;;;;;8.80;8.10;;;26.20;99.90;;;;;;5044005;28;20196;-80
2023/07/28 10:03:59;;;;;;;7.43;6.93;;;26.10;99.90;;;;;;5032708;28;20219;-80
2023/07/28 10:06:26;;;;;;;7.50;7.00;;;26.40;99.90;;;;;;5041909;28;20207;-80
2023/07/28 10:08:55;;;;;;;7.77;7.13;;;26.40;99.90;;;;;;5046299;28;20207;-80
2023/07/28 10:11:22;;;;;;;9.33;8.63;;;26.60;99.90;;;;;;5036646;28;20199;-80
2023/07/28 10:13:52;;;;;;;7.70;7.20;;;26.70;99.90;;;;;;5039886;28;20239;-80
2023/07/28 10:16:19;;;;;;;8.00;7.50;;;26.90;99.90;;;;;;5042172;28;20213;-80
2023/07/28 10:18:53;;;;;;;8.97;8.37;;;27.00;99.90;;;;;;5050436;28;20188;-79
2023/07/28 10:21:20;;;;;;;9.20;8.60;;;26.70;99.90;;;;;;5050089;28;20190;-80
2023/07/28 10:23:56;;;;;;;8.90;8.00;;;27.00;99.90;;;;;;5037270;28;20218;-80
2023/07/28 10:26:35;;;;;;;8.13;7.53;;;27.00;99.90;;;;;;5037230;28;20423;-80
2023/07/28 10:29:12;;;;;;;8.40;7.70;;;26.80;99.90;;;;;;5041508;28;20622;-80
2023/07/28 10:31:51;;;;;;;9.30;8.20;;;26.60;99.90;;;;;;5043891;28;20788;-79
2023/07/28 10:34:18;;;;;;;8.53;7.93;;;26.40;99.90;;;;;;5033956;28;20251;-80
2023/07/28 10:36:46;;;;;;;9.40;8.50;;;26.40;99.90;;;;;;5042559;28;20226;-80
2023/07/28 10:39:18;;;;;;;8.70;8.10;;;26.30;99.90;;;;;;5043798;28;20299;-80
2023/07/28 10:42:09;;;;;;;5.90;5.40;;;26.30;99.90;;;;;;5043355;28;20302;-80
2023/07/28 10:44:37;;;;;;;5.73;5.33;;;26.10;99.90;;;;;;5035989;28;20227;-80
2023/07/28 10:47:09;;;;;;;7.47;6.93;;;26.00;99.90;;;;;;5043459;28;20188;-80
2023/07/28 10:49:36;;;;;;;7.27;6.77;;;25.90;99.90;;;;;;5047959;28;20738;-80
2023/07/28 10:52:02;;;;;;;5.87;5.37;;;26.00;99.90;;;;;;5034305;28;20257;-80
2023/07/28 10:54:32;;;;;;;6.33;5.83;;;26.30;99.90;;;;;;5039157;28;20288;-80
2023/07/28 10:57:02;;;;;;;7.40;6.80;;;26.60;99.90;;;;;;5035901;28;20230;-80
2023/07/28 10:59:30;;;;;;;6.10;5.70;;;26.90;99.90;;;;;;5046897;28;20620;-80
2023/07/28 11:01:57;;;;;;;6.03;5.63;;;27.00;99.90;;;;;;5049387;28;21972;-80
2023/07/28 11:04:24;;;;;;;7.30;6.80;;;27.00;99.90;;;;;;5033145;28;20567;-80
2023/07/28 11:06:52;;;;;;;7.33;6.73;;;27.30;99.90;;;;;;5045702;28;20203;-80
2023/07/28 11:09:23;;;;;;;4.80;4.40;;;27.70;99.90;;;;;;5039413;28;20203;-80
2023/07/28 11:11:52;;;;;;;5.93;5.53;;;27.80;99.90;;;;;;5035883;28;20789;-80
2023/07/28 11:14:20;;;;;;;5.60;5.10;;;27.60;99.90;;;;;;5047434;28;20752;-80
2023/07/28 11:16:48;;;;;;;4.90;4.50;;;27.50;99.90;;;;;;5042361;28;20277;-80
2023/07/28 11:19:24;;;;;;;8.00;7.50;;;27.60;99.90;;;;;;5043803;28;20684;-80
2023/07/28 11:22:02;;;;;;;8.07;7.47;;;27.70;99.90;;;;;;5047999;28;20251;-84
2023/07/28 11:24:29;;;;;;;5.63;5.23;;;27.70;99.90;;;;;;5047131;28;20226;-77
2023/07/28 11:26:59;;;;;;;7.37;6.87;;;27.40;99.90;;;;;;5054469;28;20192;-77
2023/07/28 11:29:26;;;;;;;6.53;6.03;;;26.90;99.90;;;;;;5050082;28;20224;-77
2023/07/28 11:31:53;;;;;;;7.87;7.37;;;26.40;99.90;;;;;;5053596;28;20195;-77
2023/07/28 11:34:20;;;;;;;9.30;8.43;;;26.10;99.90;;;;;;5048633;28;20216;-76
2023/07/28 11:36:47;;;;;;;9.50;8.80;;;25.60;99.90;;;;;;5045772;28;20242;-76
2023/07/28 11:39:15;;;;;;;9.00;8.40;;;25.00;99.90;;;;;;5042427;28;20196;-77
2023/07/28 11:41:43;;;;;;;10.03;9.33;;;24.60;99.90;;;;;;5045316;28;20233;-77
2023/07/28 11:44:12;;;;;;;9.17;8.47;;;24.30;99.90;;;;;;5047077;28;20306;-76
2023/07/28 11:46:40;;;;;;;8.40;7.90;;;23.90;99.90;;;;;;5049273;28;20206;-77
2023/07/28 11:49:11;;;;;;;8.37;7.83;;;23.70;99.90;;;;;;5046457;28;20196;-77
2023/07/28 11:51:43;;;;;;;8.37;7.77;;;23.50;99.90;;;;;;5042548;28;20227;-78
2023/07/28 11:54:20;;;;;;;8.60;8.00;;;23.30;99.90;;;;;;5042895;28;20709;-82
2023/07/28 11:56:47;;;;;;;8.73;8.13;;;23.10;99.90;;;;;;5056669;28;20226;-79
2023/07/28 11:59:18;;;;;;;8.43;7.83;;;23.00;99.90;;;;;;5037754;28;20877;-76
2023/07/28 12:01:59;;;;;;;9.03;8.30;;;23.00;99.90;;;;;;5047959;28;20194;-76
2023/07/28 12:04:28;;;;;;;8.80;8.20;;;23.10;99.90;;;;;;5031971;28;20230;-76
2023/07/28 12:07:11;;;;;;;8.17;7.67;;;23.10;99.90;;;;;;5041591;28;20204;-76
2023/07/28 12:09:52;;;;;;;8.40;7.80;;;23.20;99.90;;;;;;5032346;28;20195;-76
2023/07/28 12:12:20;;;;;;;9.47;8.77;;;23.40;99.90;;;;;;5043828;28;20199;-76
2023/07/28 12:14:51;;;;;;;8.53;7.93;;;23.50;99.90;;;;;;5041889;28;20239;-76
2023/07/28 12:17:19;;;;;;;8.47;7.87;;;23.60;99.90;;;;;;5036823;28;20286;-76
2023/07/28 12:19:58;;;;;;;4.00;3.60;;;23.80;99.90;;;;;;5034285;28;20191;-76
2023/07/28 12:22:25;;;;;;;8.17;7.57;;;24.00;99.90;;;;;;5051905;28;20317;-77
2023/07/28 12:24:51;;;;;;;4.70;4.30;;;24.30;99.90;;;;;;5041711;28;20223;-76
2023/07/28 12:27:20;;;;;;;4.97;4.57;;;24.30;99.90;;;;;;5037841;28;20534;-77
2023/07/28 12:29:48;;;;;;;3.60;3.30;;;24.30;99.90;;;;;;5031946;28;20203;-76
2023/07/28 12:32:15;;;;;;;4.87;3.83;;;24.20;99.90;;;;;;5032538;28;20237;-76
2023/07/28 12:34:42;;;;;;;9.37;8.77;;;24.30;99.90;;;;;;5031173;28;20224;-77
2023/07/28 12:37:09;;;;;;;8.93;8.23;;;24.20;99.90;;;;;;5032371;28;20222;-76
2023/07/28 12:39:38;;;;;;;7.87;7.27;;;24.10;99.90;;;;;;5031551;28;20192;-76
2023/07/28 12:42:06;;;;;;;7.87;7.27;;;24.00;99.90;;;;;;5030636;28;20203;-76
2023/07/28 12:44:33;;;;;;;8.17;7.60;;;23.90;99.90;;;;;;5031093;28;20231;-77
2023/07/28 12:47:01;;;;;;;8.27;7.67;;;23.70;99.90;;;;;;5032014;28;20196;-76
2023/07/28 12:49:28;;;;;;;4.33;3.70;;;23.60;99.90;;;;;;5032980;28;20207;-76
2023/07/28 12:51:56;;;;;;;4.00;3.60;;;23.60;99.90;;;;;;5034260;28;20200;-78
2023/07/28 12:54:23;;;;;;;4.00;3.60;;;23.70;99.90;;;;;;5033615;28;20274;-78